createdAt,value
2019-02-27T00:00:11.425Z,67.60
2019-02-27T00:02:38.323Z,67.30
2019-02-27T00:05:08.380Z,67.50
2019-02-27T00:07:34.401Z,67.60
2019-02-27T00:10:00.690Z,67.70
2019-02-27T00:12:29.422Z,68.10
2019-02-27T00:14:55.030Z,68.20
2019-02-27T00:17:21.307Z,68.50
2019-02-27T00:19:47.547Z,68.10
2019-02-27T00:22:17.271Z,68.20
2019-02-27T00:24:41.916Z,68.50
2019-02-27T00:27:08.195Z,68.40
2019-02-27T00:29:34.449Z,68.80
2019-02-27T00:32:00.907Z,75.00
2019-02-27T00:34:27.310Z,71.60
2019-02-27T00:36:53.866Z,71.10
2019-02-27T00:39:20.099Z,71.20
2019-02-27T00:41:46.700Z,71.20
2019-02-27T00:44:13.036Z,70.90
2019-02-27T00:46:39.237Z,70.80
2019-02-27T00:49:05.502Z,70.80
2019-02-27T00:51:31.802Z,70.60
2019-02-27T00:53:58.348Z,70.90
2019-02-27T00:56:25.386Z,70.50
2019-02-27T00:58:51.643Z,71.30
2019-02-27T01:01:17.918Z,71.00
2019-02-27T01:03:44.456Z,70.90
2019-02-27T01:06:12.294Z,70.80
2019-02-27T01:08:38.758Z,70.90
2019-02-27T01:11:05.189Z,70.90
2019-02-27T01:13:31.863Z,70.80
2019-02-27T01:15:58.478Z,70.80
2019-02-27T01:18:24.806Z,70.80
2019-02-27T01:20:51.048Z,70.70
2019-02-27T01:23:17.306Z,70.80
2019-02-27T01:25:43.542Z,70.90
2019-02-27T01:28:11.029Z,70.90
2019-02-27T01:30:37.900Z,70.90
2019-02-27T01:33:04.880Z,70.60
2019-02-27T01:35:31.234Z,70.60
2019-02-27T01:37:57.586Z,71.10
2019-02-27T01:40:23.884Z,70.90
2019-02-27T01:42:50.331Z,70.80
2019-02-27T01:45:20.601Z,70.70
2019-02-27T01:47:44.722Z,70.60
2019-02-27T01:50:24.056Z,70.70
2019-02-27T01:52:50.235Z,70.80
2019-02-27T01:55:16.482Z,70.90
2019-02-27T01:57:42.793Z,70.90
2019-02-27T02:00:09.086Z,70.90
2019-02-27T02:02:37.576Z,71.10
2019-02-27T02:05:03.930Z,71.30
2019-02-27T02:07:30.198Z,71.10
2019-02-27T02:09:56.444Z,71.10
2019-02-27T02:12:22.697Z,71.40
2019-02-27T02:14:54.455Z,71.80
2019-02-27T02:17:27.434Z,71.80
2019-02-27T02:19:57.491Z,71.70
2019-02-27T02:22:33.510Z,71.70
2019-02-27T02:25:33.950Z,71.80
2019-02-27T02:28:19.148Z,71.70
2019-02-27T02:30:52.007Z,71.70
2019-02-27T02:33:29.128Z,71.90
2019-02-27T02:36:17.165Z,71.80
2019-02-27T02:39:05.415Z,71.80
2019-02-27T02:41:56.826Z,71.70
2019-02-27T02:44:40.228Z,71.80
2019-02-27T02:47:13.051Z,72.20
2019-02-27T02:49:43.913Z,72.20
2019-02-27T02:52:25.614Z,72.10
2019-02-27T02:54:58.230Z,72.30
2019-02-27T02:58:03.417Z,72.20
2019-02-27T03:00:45.568Z,72.10
2019-02-27T03:03:21.465Z,72.10
2019-02-27T03:06:11.283Z,72.00
2019-02-27T03:08:55.321Z,72.10
2019-02-27T03:11:34.730Z,72.40
2019-02-27T03:14:16.877Z,72.50
2019-02-27T03:16:48.652Z,72.30
2019-02-27T03:19:28.039Z,72.50
2019-02-27T03:22:03.612Z,72.80
2019-02-27T03:24:50.655Z,72.80
2019-02-27T03:27:35.900Z,73.00
2019-02-27T03:30:33.985Z,73.00
2019-02-27T03:33:05.017Z,73.30
2019-02-27T03:35:41.148Z,73.60
2019-02-27T03:38:34.584Z,73.40
2019-02-27T03:41:07.437Z,73.30
2019-02-27T03:43:57.398Z,73.60
2019-02-27T03:46:42.771Z,73.70
2019-02-27T03:49:18.544Z,74.00
2019-02-27T03:52:00.128Z,74.20
2019-02-27T03:54:29.742Z,74.10
2019-02-27T03:57:21.147Z,74.00
2019-02-27T03:59:57.398Z,74.00
2019-02-27T04:02:45.899Z,74.10
2019-02-27T04:05:21.990Z,74.30
2019-02-27T04:07:52.311Z,74.10
2019-02-27T04:10:18.554Z,74.10
2019-02-27T04:12:44.841Z,74.30
2019-02-27T04:15:11.213Z,74.60
2019-02-27T04:17:37.269Z,74.70
2019-02-27T04:20:04.461Z,74.60
2019-02-27T04:22:36.197Z,74.70
2019-02-27T04:24:58.815Z,74.80
2019-02-27T04:27:25.041Z,74.60
2019-02-27T04:29:51.378Z,74.70
2019-02-27T04:32:17.707Z,74.60
2019-02-27T04:34:43.932Z,75.00
2019-02-27T04:37:10.733Z,75.30
2019-02-27T04:39:38.229Z,74.90
2019-02-27T04:42:05.192Z,75.10
2019-02-27T04:44:31.476Z,75.10
2019-02-27T04:46:57.745Z,75.00
2019-02-27T04:49:24.011Z,76.00
2019-02-27T04:51:50.566Z,75.30
2019-02-27T04:54:19.068Z,75.30
2019-02-27T04:56:45.315Z,75.60
2019-02-27T04:59:11.594Z,75.80
2019-02-27T05:01:37.871Z,75.90
2019-02-27T05:04:04.168Z,75.40
2019-02-27T05:06:30.475Z,75.50
2019-02-27T05:08:59.734Z,75.40
2019-02-27T05:11:26.929Z,75.60
2019-02-27T05:13:54.275Z,75.90
2019-02-27T05:16:21.011Z,76.00
2019-02-27T05:18:47.256Z,76.20
2019-02-27T05:21:13.518Z,76.00
2019-02-27T05:23:39.844Z,76.20
2019-02-27T05:26:06.167Z,76.30
2019-02-27T05:28:34.954Z,76.50
2019-02-27T05:31:00.963Z,76.20
2019-02-27T05:33:27.253Z,76.20
2019-02-27T05:35:57.013Z,76.40
2019-02-27T05:38:21.936Z,76.50
2019-02-27T05:40:48.261Z,76.90
2019-02-27T05:43:14.541Z,76.60
2019-02-27T05:45:40.797Z,76.90
2019-02-27T05:48:07.027Z,77.40
2019-02-27T05:50:34.352Z,77.40
2019-02-27T05:53:01.976Z,77.20
2019-02-27T05:55:28.235Z,77.50
2019-02-27T05:57:54.609Z,77.20
2019-02-27T06:00:21.456Z,77.00
2019-02-27T06:02:47.767Z,77.10
2019-02-27T06:05:13.987Z,77.10
2019-02-27T06:07:40.351Z,76.90
2019-02-27T06:10:09.674Z,76.90
2019-02-27T06:12:38.147Z,76.80
2019-02-27T06:15:07.920Z,86.60
2019-02-27T06:17:43.112Z,80.80
2019-02-27T06:20:07.683Z,79.50
2019-02-27T06:22:32.164Z,79.10
2019-02-27T06:24:58.459Z,78.70
2019-02-27T06:27:24.889Z,79.10
2019-02-27T06:29:51.561Z,78.10
2019-02-27T06:32:17.884Z,78.10
2019-02-27T06:34:44.189Z,78.50
2019-02-27T06:37:10.465Z,78.30
2019-02-27T06:39:38.375Z,78.30
2019-02-27T06:42:05.112Z,78.20
2019-02-27T06:44:31.742Z,78.10
2019-02-27T06:46:58.123Z,77.80
2019-02-27T06:49:24.408Z,77.80
2019-02-27T06:51:51.741Z,78.00
2019-02-27T06:54:22.370Z,77.70
2019-02-27T06:56:48.752Z,77.80
2019-02-27T06:59:15.030Z,78.20
2019-02-27T07:01:41.609Z,78.20
2019-02-27T07:04:08.256Z,78.00
2019-02-27T07:06:36.871Z,91.50
2019-02-27T07:09:04.464Z,82.40
2019-02-27T07:11:30.916Z,89.10
2019-02-27T07:14:12.990Z,83.00
2019-02-27T07:16:39.297Z,81.30
2019-02-27T07:19:08.027Z,80.30
2019-02-27T07:21:34.414Z,79.70
2019-02-27T07:24:00.686Z,79.30
2019-02-27T07:26:27.108Z,79.00
2019-02-27T07:28:55.407Z,78.60
2019-02-27T07:31:23.515Z,78.60
2019-02-27T07:33:58.778Z,78.00
2019-02-27T07:36:25.037Z,77.80
2019-02-27T07:38:51.327Z,77.10
2019-02-27T07:41:20.163Z,76.50
2019-02-27T07:43:45.822Z,76.40
2019-02-27T07:46:12.126Z,75.30
2019-02-27T07:48:38.825Z,75.60
2019-02-27T07:51:05.226Z,75.80
2019-02-27T07:53:31.469Z,75.20
2019-02-27T07:55:57.926Z,74.80
2019-02-27T07:58:24.308Z,72.80
2019-02-27T08:00:50.589Z,73.60
2019-02-27T08:03:16.821Z,71.20
2019-02-27T08:05:43.129Z,72.50
2019-02-27T08:08:09.485Z,72.60
2019-02-27T08:10:36.899Z,71.90
2019-02-27T08:13:03.748Z,69.50
2019-02-27T08:15:30.432Z,69.00
2019-02-27T08:17:57.972Z,66.40
2019-02-27T08:20:25.105Z,65.70
2019-02-27T08:22:51.413Z,65.20
2019-02-27T08:25:17.786Z,61.90
2019-02-27T08:27:44.142Z,62.00
2019-02-27T08:30:16.187Z,61.70
2019-02-27T08:32:42.497Z,60.00
2019-02-27T08:35:09.030Z,60.10
2019-02-27T08:37:35.474Z,60.00
2019-02-27T08:40:02.526Z,59.10
2019-02-27T08:42:28.936Z,57.90
2019-02-27T08:44:55.221Z,56.90
2019-02-27T08:47:21.725Z,56.20
2019-02-27T08:49:47.982Z,56.50
2019-02-27T08:52:16.252Z,55.20
2019-02-27T08:54:44.418Z,54.00
2019-02-27T08:57:10.709Z,55.00
2019-02-27T08:59:39.995Z,54.30
2019-02-27T09:02:05.317Z,53.40
2019-02-27T09:04:31.560Z,54.70
2019-02-27T09:07:02.227Z,53.80
2019-02-27T09:09:26.216Z,53.50
2019-02-27T09:11:54.390Z,51.90
2019-02-27T09:14:21.560Z,52.50
2019-02-27T09:16:48.058Z,52.30
2019-02-27T09:19:15.073Z,52.60
2019-02-27T09:21:41.346Z,51.40
2019-02-27T09:24:07.631Z,52.30
2019-02-27T09:26:36.003Z,52.40
2019-02-27T09:29:02.194Z,52.20
2019-02-27T09:31:28.740Z,51.10
2019-02-27T09:33:54.980Z,50.20
2019-02-27T09:36:21.354Z,50.00
2019-02-27T09:38:47.666Z,50.60
2019-02-27T09:41:13.996Z,49.90
2019-02-27T09:43:40.294Z,50.10
2019-02-27T09:46:06.681Z,50.20
2019-02-27T09:48:33.447Z,48.90
2019-02-27T09:51:02.919Z,49.10
2019-02-27T09:53:29.181Z,49.20
2019-02-27T09:55:55.473Z,50.10
2019-02-27T09:58:22.678Z,49.20
2019-02-27T10:01:03.196Z,48.80
2019-02-27T10:03:29.652Z,48.30
2019-02-27T10:05:55.970Z,47.80
2019-02-27T10:08:25.213Z,48.60
2019-02-27T10:10:50.511Z,47.90
2019-02-27T10:13:16.855Z,47.10
2019-02-27T10:15:43.258Z,47.60
2019-02-27T10:18:09.526Z,48.10
2019-02-27T10:20:37.222Z,47.60
2019-02-27T10:23:03.856Z,46.70
2019-02-27T10:25:30.246Z,47.00
2019-02-27T10:27:56.622Z,47.70
2019-02-27T10:30:22.901Z,48.00
2019-02-27T10:32:49.290Z,45.90
2019-02-27T10:35:15.758Z,45.50
2019-02-27T10:37:42.528Z,45.20
2019-02-27T10:40:20.746Z,46.00
2019-02-27T10:42:47.049Z,45.20
2019-02-27T10:45:14.042Z,43.30
2019-02-27T10:47:40.340Z,43.70
2019-02-27T10:50:12.540Z,42.70
2019-02-27T10:52:39.142Z,43.80
2019-02-27T10:55:19.099Z,42.20
2019-02-27T10:57:45.402Z,43.20
2019-02-27T11:00:32.792Z,43.50
2019-02-27T11:03:01.009Z,43.10
2019-02-27T11:05:32.189Z,43.80
2019-02-27T11:07:58.454Z,43.30
2019-02-27T11:10:24.686Z,43.40
2019-02-27T11:12:50.984Z,44.30
2019-02-27T11:15:18.399Z,42.60
2019-02-27T11:17:44.809Z,43.30
2019-02-27T11:20:11.777Z,43.30
2019-02-27T11:22:38.036Z,41.90
2019-02-27T11:25:10.520Z,41.30
2019-02-27T11:27:38.957Z,41.50
2019-02-27T11:30:08.920Z,42.20
2019-02-27T11:32:35.282Z,41.30
2019-02-27T11:35:01.611Z,40.90
2019-02-27T11:37:29.615Z,40.90
2019-02-27T11:39:56.159Z,40.60
2019-02-27T11:42:22.467Z,40.80
2019-02-27T11:44:49.615Z,40.70
2019-02-27T11:47:16.545Z,40.60
2019-02-27T11:49:42.948Z,41.80
2019-02-27T11:52:09.295Z,40.40
2019-02-27T11:54:35.688Z,39.40
2019-02-27T11:57:02.067Z,40.40
2019-02-27T11:59:31.473Z,39.00
2019-02-27T12:01:58.036Z,38.90
2019-02-27T12:04:24.471Z,37.60
2019-02-27T12:06:50.765Z,36.80
2019-02-27T12:09:17.157Z,36.50
2019-02-27T12:11:50.930Z,37.10
2019-02-27T12:14:18.945Z,37.60
2019-02-27T12:16:45.417Z,36.40
2019-02-27T12:19:12.459Z,36.80
2019-02-27T12:21:38.802Z,36.50
2019-02-27T12:24:05.507Z,36.00
2019-02-27T12:26:37.384Z,36.70
2019-02-27T12:29:07.108Z,36.60
2019-02-27T12:31:33.241Z,36.40
2019-02-27T12:34:02.448Z,35.00
2019-02-27T12:36:28.137Z,34.90
2019-02-27T12:38:54.567Z,35.00
2019-02-27T12:41:20.921Z,34.20
2019-02-27T12:43:52.164Z,33.00
2019-02-27T12:46:15.718Z,34.30
2019-02-27T12:48:46.112Z,34.40
2019-02-27T12:51:10.152Z,33.90
2019-02-27T12:53:36.499Z,34.60
2019-02-27T12:56:02.805Z,33.70
2019-02-27T12:58:29.199Z,33.90
2019-02-27T13:00:55.627Z,33.40
2019-02-27T13:03:21.876Z,33.20
2019-02-27T13:05:48.262Z,31.80
2019-02-27T13:08:16.352Z,32.90
2019-02-27T13:10:42.627Z,32.40
2019-02-27T13:13:08.951Z,32.20
2019-02-27T13:15:35.234Z,32.10
2019-02-27T13:18:05.868Z,32.20
2019-02-27T13:20:33.695Z,30.40
2019-02-27T13:23:03.845Z,30.20
2019-02-27T13:25:30.174Z,28.90
2019-02-27T13:27:56.185Z,28.40
2019-02-27T13:30:23.807Z,27.80
2019-02-27T13:32:49.991Z,29.20
2019-02-27T13:35:16.869Z,28.30
2019-02-27T13:37:46.053Z,28.90
2019-02-27T13:40:22.313Z,29.70
2019-02-27T13:42:52.433Z,27.90
2019-02-27T13:45:18.655Z,28.70
2019-02-27T13:47:44.908Z,28.70
2019-02-27T13:50:12.500Z,28.80
2019-02-27T13:52:41.111Z,28.40
2019-02-27T13:55:11.206Z,28.90
2019-02-27T13:57:38.166Z,28.00
2019-02-27T14:00:28.404Z,28.30
2019-02-27T14:02:54.795Z,28.00
2019-02-27T14:05:21.232Z,28.40
2019-02-27T14:07:47.721Z,29.10
2019-02-27T14:10:20.700Z,29.30
2019-02-27T14:12:46.976Z,29.30
2019-02-27T14:15:15.351Z,30.70
2019-02-27T14:17:42.201Z,30.20
2019-02-27T14:20:14.090Z,29.90
2019-02-27T14:22:41.173Z,29.20
2019-02-27T14:25:13.393Z,29.50
2019-02-27T14:27:39.965Z,29.50
2019-02-27T14:30:12.455Z,29.80
2019-02-27T14:32:38.873Z,30.60
2019-02-27T14:35:05.173Z,30.00
2019-02-27T14:37:31.428Z,30.80
2019-02-27T14:39:57.739Z,30.10
2019-02-27T14:42:24.034Z,30.00
2019-02-27T14:44:50.344Z,29.40
2019-02-27T14:47:17.083Z,29.90
2019-02-27T14:49:43.450Z,29.60
2019-02-27T14:52:14.046Z,28.70
2019-02-27T14:54:37.872Z,29.00
2019-02-27T14:57:04.252Z,29.70
2019-02-27T14:59:31.457Z,29.80
2019-02-27T15:01:58.199Z,29.80
2019-02-27T15:04:24.414Z,30.10
2019-02-27T15:06:51.416Z,29.80
2019-02-27T15:09:17.796Z,29.80
2019-02-27T15:11:44.963Z,29.50
2019-02-27T15:14:12.226Z,29.70
2019-02-27T15:16:38.488Z,30.20
2019-02-27T15:19:04.820Z,30.10
2019-02-27T15:21:31.852Z,30.10
2019-02-27T15:24:01.521Z,30.00
2019-02-27T15:26:26.401Z,30.30
2019-02-27T15:28:52.666Z,30.00
2019-02-27T15:31:21.292Z,30.60
2019-02-27T15:33:47.149Z,30.00
2019-02-27T15:36:13.435Z,30.00
2019-02-27T15:38:39.909Z,30.00
2019-02-27T15:41:06.251Z,30.70
2019-02-27T15:43:32.556Z,30.00
2019-02-27T15:45:58.972Z,30.40
2019-02-27T15:48:25.246Z,30.00
2019-02-27T15:50:56.407Z,30.40
2019-02-27T15:53:20.017Z,30.80
2019-02-27T15:55:46.319Z,30.20
2019-02-27T15:58:12.667Z,30.10
2019-02-27T16:00:40.237Z,30.50
2019-02-27T16:03:10.853Z,30.80
2019-02-27T16:05:34.736Z,30.80
2019-02-27T16:08:01.037Z,30.80
2019-02-27T16:10:27.636Z,31.40
2019-02-27T16:12:53.890Z,31.10
2019-02-27T16:15:21.026Z,31.40
2019-02-27T16:17:47.344Z,31.10
2019-02-27T16:20:23.491Z,31.00
2019-02-27T16:22:49.923Z,31.00
2019-02-27T16:25:19.973Z,31.30
2019-02-27T16:27:46.415Z,31.60
2019-02-27T16:30:15.589Z,31.50
2019-02-27T16:32:47.992Z,32.30
2019-02-27T16:35:09.983Z,32.80
2019-02-27T16:37:36.303Z,32.60
2019-02-27T16:40:06.383Z,32.80
2019-02-27T16:42:32.643Z,33.00
2019-02-27T16:44:59.115Z,33.30
2019-02-27T16:47:25.317Z,33.90
2019-02-27T16:49:51.554Z,33.10
2019-02-27T16:52:18.289Z,33.30
2019-02-27T16:54:44.826Z,33.40
2019-02-27T16:57:11.045Z,33.70
2019-02-27T16:59:37.399Z,33.30
2019-02-27T17:02:04.649Z,33.50
2019-02-27T17:04:34.066Z,33.70
2019-02-27T17:07:01.209Z,33.50
2019-02-27T17:09:27.531Z,34.10
2019-02-27T17:11:53.983Z,34.10
2019-02-27T17:14:21.190Z,34.40
2019-02-27T17:16:48.489Z,34.50
2019-02-27T17:19:14.889Z,34.30
2019-02-27T17:21:41.123Z,35.00
2019-02-27T17:24:07.454Z,34.80
2019-02-27T17:26:35.251Z,35.00
2019-02-27T17:29:01.961Z,35.20
2019-02-27T17:31:28.192Z,35.70
2019-02-27T17:33:54.426Z,35.60
2019-02-27T17:36:20.712Z,36.10
2019-02-27T17:38:49.804Z,36.30
2019-02-27T17:41:15.059Z,36.30
2019-02-27T17:43:41.588Z,36.70
2019-02-27T17:46:07.888Z,37.00
2019-02-27T17:48:34.207Z,37.60
2019-02-27T17:51:05.788Z,37.70
2019-02-27T17:53:28.724Z,38.70
2019-02-27T17:56:01.209Z,38.20
2019-02-27T17:58:31.874Z,38.20
2019-02-27T18:00:57.979Z,38.40
2019-02-27T18:03:25.054Z,38.50
2019-02-27T18:05:51.510Z,38.60
2019-02-27T18:08:17.855Z,38.60
2019-02-27T18:10:44.248Z,38.90
2019-02-27T18:13:12.169Z,39.30
2019-02-27T18:15:38.399Z,40.20
2019-02-27T18:18:07.170Z,39.80
2019-02-27T18:20:33.082Z,40.40
2019-02-27T18:22:59.427Z,41.50
2019-02-27T18:25:26.047Z,41.50
2019-02-27T18:27:52.515Z,41.90
2019-02-27T18:30:21.615Z,42.70
2019-02-27T18:32:48.411Z,42.70
2019-02-27T18:35:16.020Z,42.90
2019-02-27T18:37:42.574Z,43.00
2019-02-27T18:40:13.155Z,43.20
2019-02-27T18:42:39.661Z,43.20
2019-02-27T18:45:09.286Z,44.30
2019-02-27T18:47:35.887Z,44.30
2019-02-27T18:50:03.470Z,45.00
2019-02-27T18:52:30.051Z,45.40
2019-02-27T18:54:56.924Z,45.90
2019-02-27T18:57:23.301Z,45.80
2019-02-27T18:59:49.717Z,46.00
2019-02-27T19:02:19.649Z,46.00
2019-02-27T19:04:44.231Z,45.90
2019-02-27T19:07:10.486Z,46.50
2019-02-27T19:09:37.294Z,46.80
2019-02-27T19:12:03.545Z,58.10
2019-02-27T19:14:30.114Z,47.70
2019-02-27T19:16:59.838Z,47.80
2019-02-27T19:19:26.181Z,47.80
2019-02-27T19:21:52.767Z,47.70
2019-02-27T19:24:19.095Z,48.40
2019-02-27T19:26:45.465Z,48.30
2019-02-27T19:29:11.915Z,48.80
2019-02-27T19:31:38.370Z,48.70
2019-02-27T19:34:07.342Z,49.20
2019-02-27T19:36:33.241Z,49.80
2019-02-27T19:38:59.724Z,50.20
2019-02-27T19:41:26.195Z,50.30
2019-02-27T19:43:55.733Z,50.30
2019-02-27T19:46:20.659Z,50.30
2019-02-27T19:48:46.966Z,50.90
2019-02-27T19:51:13.425Z,51.20
2019-02-27T19:53:41.267Z,51.60
2019-02-27T19:56:08.826Z,51.40
2019-02-27T19:58:37.144Z,51.40
2019-02-27T20:01:08.504Z,51.50
2019-02-27T20:03:34.873Z,51.70
2019-02-27T20:06:00.171Z,52.10
2019-02-27T20:08:26.596Z,52.20
2019-02-27T20:10:53.166Z,51.90
2019-02-27T20:13:19.927Z,52.30
2019-02-27T20:15:50.063Z,52.20
2019-02-27T20:18:20.343Z,52.10
2019-02-27T20:20:47.520Z,53.40
2019-02-27T20:23:14.031Z,52.40
2019-02-27T20:25:43.527Z,52.30
2019-02-27T20:28:08.736Z,53.00
2019-02-27T20:30:35.517Z,53.20
2019-02-27T20:33:02.541Z,53.60
2019-02-27T20:35:29.411Z,54.30
2019-02-27T20:37:55.775Z,53.70
2019-02-27T20:40:22.311Z,53.60
2019-02-27T20:42:51.465Z,53.80
2019-02-27T20:45:22.010Z,54.10
2019-02-27T20:47:46.996Z,54.10
2019-02-27T20:50:21.817Z,55.60
2019-02-27T20:52:49.448Z,55.90
2019-02-27T20:55:16.651Z,55.90
2019-02-27T20:57:45.071Z,55.50
2019-02-27T21:00:14.169Z,55.50
2019-02-27T21:02:40.581Z,55.10
2019-02-27T21:05:09.540Z,55.20
2019-02-27T21:07:36.582Z,55.20
2019-02-27T21:10:08.220Z,55.90
2019-02-27T21:12:34.366Z,55.90
2019-02-27T21:15:00.666Z,56.30
2019-02-27T21:17:27.402Z,56.50
2019-02-27T21:19:54.149Z,56.40
2019-02-27T21:22:20.401Z,56.20
2019-02-27T21:24:46.790Z,55.90
2019-02-27T21:27:13.635Z,56.30
2019-02-27T21:29:40.235Z,56.30
2019-02-27T21:32:08.079Z,57.50
2019-02-27T21:34:34.951Z,57.90
2019-02-27T21:37:01.204Z,58.00
2019-02-27T21:39:28.392Z,57.30
2019-02-27T21:41:55.198Z,57.10
2019-02-27T21:44:25.455Z,57.00
2019-02-27T21:46:49.687Z,57.30
2019-02-27T21:49:16.985Z,58.90
2019-02-27T21:51:47.707Z,58.10
2019-02-27T21:54:11.778Z,58.70
2019-02-27T21:56:38.817Z,58.60
2019-02-27T21:59:05.825Z,58.90
2019-02-27T22:01:32.999Z,58.70
2019-02-27T22:03:59.705Z,59.20
2019-02-27T22:06:27.447Z,58.70
2019-02-27T22:08:54.077Z,60.60
2019-02-27T22:11:20.420Z,60.70
2019-02-27T22:13:49.757Z,61.10
2019-02-27T22:16:16.084Z,61.20
2019-02-27T22:18:46.697Z,59.80
2019-02-27T22:21:10.707Z,60.00
2019-02-27T22:23:37.600Z,61.10
2019-02-27T22:26:04.357Z,60.90
2019-02-27T22:28:30.823Z,60.10
2019-02-27T22:30:57.386Z,61.80
2019-02-27T22:33:23.697Z,62.30
2019-02-27T22:35:49.982Z,62.20
2019-02-27T22:38:16.245Z,62.60
2019-02-27T22:40:42.663Z,62.50
2019-02-27T22:43:08.960Z,61.50
2019-02-27T22:45:36.114Z,61.10
2019-02-27T22:48:03.321Z,61.60
2019-02-27T22:50:30.067Z,61.20
2019-02-27T22:52:56.344Z,61.30
2019-02-27T22:55:22.661Z,61.00
2019-02-27T22:57:48.931Z,60.40
2019-02-27T23:00:56.003Z,62.10
2019-02-27T23:03:28.262Z,61.20
2019-02-27T23:05:54.581Z,61.30
2019-02-27T23:08:22.945Z,60.90
2019-02-27T23:10:49.350Z,61.20
2019-02-27T23:13:15.609Z,60.90
2019-02-27T23:15:42.045Z,62.20
2019-02-27T23:18:08.476Z,61.80
2019-02-27T23:20:35.023Z,62.30
2019-02-27T23:23:02.615Z,62.80
2019-02-27T23:25:29.547Z,62.80
2019-02-27T23:27:57.571Z,62.70
2019-02-27T23:30:23.905Z,63.10
2019-02-27T23:32:50.193Z,64.10
2019-02-27T23:35:16.890Z,65.00
2019-02-27T23:37:43.286Z,64.80
2019-02-27T23:40:09.565Z,65.30
2019-02-27T23:42:35.839Z,66.40
2019-02-27T23:45:03.512Z,66.50
2019-02-27T23:47:29.768Z,66.80
2019-02-27T23:49:56.048Z,67.00
2019-02-27T23:52:23.065Z,66.70
2019-02-27T23:54:49.891Z,68.20
2019-02-27T23:57:16.145Z,67.90
2019-02-27T23:59:42.480Z,67.60
